createdAt,value
2023-03-21T00:04:29.680Z,119.57
2023-03-21T00:09:33.803Z,88.93
2023-03-21T00:14:37.982Z,76.43
2023-03-21T00:19:41.340Z,83.20
2023-03-21T00:24:43.698Z,103.13
2023-03-21T00:29:46.919Z,122.40
2023-03-21T00:35:40.778Z,68.50
2023-03-21T00:40:26.644Z,44.97
2023-03-21T00:45:33.512Z,36.07
2023-03-21T00:50:39.032Z,35.67
2023-03-21T00:55:42.002Z,34.03
2023-03-21T01:00:47.046Z,32.73
2023-03-21T01:06:08.022Z,30.93
2023-03-21T01:11:14.176Z,26.23
2023-03-21T01:16:18.324Z,28.20
2023-03-21T01:21:20.869Z,28.43
2023-03-21T01:26:23.869Z,32.40
2023-03-21T01:31:26.376Z,29.73
2023-03-21T01:36:29.040Z,33.63
2023-03-21T01:41:44.074Z,30.57
2023-03-21T01:47:10.533Z,31.03
2023-03-21T01:52:38.756Z,27.77
2023-03-21T01:58:07.003Z,29.93
2023-03-21T02:03:38.356Z,27.23
2023-03-21T02:09:04.682Z,29.57
2023-03-21T02:14:26.624Z,33.03
2023-03-21T02:19:52.652Z,28.17
2023-03-21T02:25:21.175Z,26.57
2023-03-21T02:30:37.475Z,23.73
2023-03-21T02:35:58.631Z,26.60
2023-03-21T02:41:18.178Z,25.83
2023-03-21T02:46:51.090Z,20.93
2023-03-21T02:52:14.137Z,25.63
2023-03-21T02:57:19.543Z,22.50
2023-03-21T03:02:26.586Z,22.63
2023-03-21T03:07:55.626Z,27.10
2023-03-21T03:13:03.989Z,27.50
2023-03-21T03:18:24.624Z,30.40
2023-03-21T03:23:40.378Z,49.70
2023-03-21T03:28:49.080Z,57.40
2023-03-21T03:33:56.746Z,45.63
2023-03-21T03:39:02.285Z,41.10
2023-03-21T03:44:06.383Z,37.20
2023-03-21T03:49:18.136Z,34.03
2023-03-21T03:54:26.312Z,45.70
2023-03-21T03:59:29.062Z,39.27
2023-03-21T04:04:43.887Z,34.67
2023-03-21T04:09:46.631Z,48.87
2023-03-21T04:14:53.315Z,40.43
2023-03-21T04:20:11.507Z,39.20
2023-03-21T04:25:27.389Z,32.47
2023-03-21T04:30:36.462Z,31.03
2023-03-21T04:35:45.952Z,30.37
2023-03-21T04:40:49.994Z,27.47
2023-03-21T04:45:52.746Z,33.50
2023-03-21T04:50:55.871Z,25.40
2023-03-21T04:55:58.313Z,20.43
2023-03-21T05:01:02.594Z,25.53
2023-03-21T05:06:07.051Z,25.70
2023-03-21T05:11:09.490Z,19.77
2023-03-21T05:16:12.048Z,26.60
2023-03-21T05:21:18.165Z,22.83
2023-03-21T05:26:24.002Z,21.23
2023-03-21T05:31:37.668Z,22.97
2023-03-21T05:36:44.674Z,24.50
2023-03-21T05:41:47.737Z,23.93
2023-03-21T05:46:50.386Z,29.60
2023-03-21T05:51:55.910Z,26.67
2023-03-21T05:56:59.082Z,42.83
2023-03-21T06:02:23.785Z,36.27
2023-03-21T06:07:26.862Z,38.57
2023-03-21T06:12:31.310Z,36.63
2023-03-21T06:17:56.644Z,31.53
2023-03-21T06:22:59.244Z,32.33
2023-03-21T06:28:01.916Z,39.93
2023-03-21T06:33:05.807Z,29.03
2023-03-21T06:38:08.621Z,32.33
2023-03-21T06:43:11.191Z,27.70
2023-03-21T06:48:13.866Z,31.07
2023-03-21T06:53:30.481Z,36.13
2023-03-21T06:58:51.764Z,29.40
2023-03-21T07:04:11.670Z,21.03
2023-03-21T07:09:14.656Z,24.23
2023-03-21T07:14:17.980Z,30.67
2023-03-21T07:19:20.661Z,27.30
2023-03-21T07:24:23.844Z,29.60
2023-03-21T07:29:26.258Z,22.00
2023-03-21T07:34:33.092Z,24.23
2023-03-21T07:39:38.782Z,21.20
2023-03-21T07:44:42.769Z,27.27
2023-03-21T07:56:26.146Z,21.23
2023-03-21T08:01:28.584Z,25.27
2023-03-21T08:06:32.480Z,27.03
2023-03-21T08:11:34.973Z,24.03
2023-03-21T08:16:37.510Z,25.27
2023-03-21T08:21:40.039Z,30.23
2023-03-21T08:26:43.704Z,39.80
2023-03-21T08:31:46.275Z,24.47
2023-03-21T08:36:48.692Z,44.20
2023-03-21T08:41:51.222Z,30.23
2023-03-21T08:46:55.051Z,33.20
2023-03-21T08:51:57.482Z,59.67
2023-03-21T08:57:00.004Z,55.57
2023-03-21T09:02:02.451Z,228.67
2023-03-21T09:07:06.053Z,37.53
2023-03-21T09:12:08.897Z,29.73
2023-03-21T09:17:14.506Z,26.67
2023-03-21T09:22:21.447Z,29.87
2023-03-21T09:27:25.512Z,36.00
2023-03-21T09:32:29.317Z,31.50
2023-03-21T09:37:32.801Z,132.27
2023-03-21T09:42:53.567Z,54.87
2023-03-21T09:47:57.144Z,56.37
2023-03-21T09:53:11.313Z,28.90
2023-03-21T09:58:20.781Z,35.30
2023-03-21T10:03:28.204Z,43.03
2023-03-21T10:08:37.471Z,35.33
2023-03-21T10:13:46.429Z,37.67
2023-03-21T10:18:50.419Z,33.60
2023-03-21T10:23:56.170Z,37.70
2023-03-21T10:29:02.096Z,27.60
2023-03-21T10:34:16.226Z,36.17
2023-03-21T10:39:32.261Z,31.80
2023-03-21T10:44:35.757Z,28.57
2023-03-21T10:50:06.306Z,35.80
2023-03-21T10:55:23.238Z,30.87
2023-03-21T11:00:30.210Z,30.77
2023-03-21T11:05:39.682Z,28.00
2023-03-21T11:10:54.084Z,28.90
2023-03-21T11:16:03.929Z,27.67
2023-03-21T11:21:11.828Z,31.23
2023-03-21T11:26:26.234Z,25.93
2023-03-21T11:31:41.633Z,32.40
2023-03-21T11:36:50.677Z,33.53
2023-03-21T11:41:53.130Z,29.17
2023-03-21T11:46:55.839Z,29.83
2023-03-21T11:52:25.866Z,28.53
2023-03-21T11:57:54.861Z,32.63
2023-03-21T12:03:22.043Z,31.83
2023-03-21T12:08:32.928Z,29.10
2023-03-21T12:13:41.374Z,36.63
2023-03-21T12:18:49.932Z,30.77
2023-03-21T12:24:33.253Z,35.43
2023-03-21T12:30:03.793Z,37.63
2023-03-21T12:35:20.496Z,44.90
2023-03-21T12:40:31.973Z,34.27
2023-03-21T12:45:47.463Z,34.30
2023-03-21T12:50:53.724Z,33.30
2023-03-21T12:56:03.114Z,31.40
2023-03-21T13:01:06.791Z,32.33
2023-03-21T13:06:13.560Z,31.90
2023-03-21T13:11:20.920Z,29.43
2023-03-21T13:16:47.747Z,35.23
2023-03-21T13:22:13.986Z,32.73
2023-03-21T13:27:25.013Z,29.13
2023-03-21T13:32:39.409Z,32.27
2023-03-21T13:37:52.760Z,29.80
2023-03-21T13:42:59.690Z,88.60
2023-03-21T13:48:25.564Z,29.63
2023-03-21T13:53:45.235Z,34.17
2023-03-21T13:58:47.600Z,28.67
2023-03-21T14:03:56.533Z,47.20
2023-03-21T14:08:59.952Z,70.27
2023-03-21T14:14:04.197Z,67.43
2023-03-21T14:19:06.737Z,38.97
2023-03-21T14:24:14.024Z,31.10
2023-03-21T14:29:33.657Z,31.10
2023-03-21T14:34:37.186Z,34.43
2023-03-21T14:39:39.613Z,56.20
2023-03-21T14:44:55.239Z,192.50
2023-03-21T14:50:01.092Z,611.10
2023-03-21T14:55:16.413Z,90.80
2023-03-21T15:00:27.333Z,97.63
2023-03-21T15:05:32.989Z,809.40
2023-03-21T15:10:35.820Z,286.47
2023-03-21T15:15:38.971Z,102.63
2023-03-21T15:20:42.022Z,41.60
2023-03-21T15:25:45.684Z,44.33
2023-03-21T15:30:50.880Z,71.73
2023-03-21T15:35:56.213Z,40.27
2023-03-21T15:41:34.296Z,38.43
2023-03-21T15:46:48.314Z,48.00
2023-03-21T15:52:00.729Z,63.47
2023-03-21T15:57:09.579Z,56.43
2023-03-21T16:02:22.476Z,63.30
2023-03-21T16:07:26.110Z,47.10
2023-03-21T16:12:28.883Z,79.10
2023-03-21T16:17:35.636Z,50.03
2023-03-21T16:22:38.106Z,94.27
2023-03-21T16:27:40.517Z,63.37
2023-03-21T16:32:43.145Z,48.53
2023-03-21T16:37:48.185Z,51.03
2023-03-21T16:42:50.699Z,61.07
2023-03-21T16:47:53.448Z,380.53
2023-03-21T16:52:56.823Z,77.23
2023-03-21T16:57:59.274Z,68.93
2023-03-21T17:03:08.908Z,82.43
2023-03-21T17:08:19.890Z,64.23
2023-03-21T17:13:22.503Z,108.80
2023-03-21T17:18:24.879Z,126.63
2023-03-21T17:23:27.322Z,145.00
2023-03-21T17:28:29.708Z,133.70
2023-03-21T17:33:32.113Z,127.07
2023-03-21T17:38:34.549Z,119.53
2023-03-21T17:43:40.075Z,148.33
2023-03-21T17:48:44.255Z,233.33
2023-03-21T17:53:49.342Z,341.10
2023-03-21T17:58:52.420Z,273.03
2023-03-21T18:03:55.078Z,116.60
2023-03-21T18:08:59.383Z,95.10
2023-03-21T18:14:15.419Z,246.20
2023-03-21T18:19:19.592Z,154.97
2023-03-21T18:24:21.971Z,73.60
2023-03-21T18:34:47.077Z,107.50
2023-03-21T18:39:49.622Z,343.40
2023-03-21T18:44:52.404Z,417.03
2023-03-21T18:50:13.132Z,244.87
2023-03-21T18:55:16.489Z,100.13
2023-03-21T19:00:21.797Z,97.50
2023-03-21T19:05:25.082Z,121.43
2023-03-21T19:10:27.912Z,122.17
2023-03-21T19:15:30.632Z,109.57
2023-03-21T19:20:34.176Z,106.07
2023-03-21T19:25:36.929Z,125.50
2023-03-21T19:30:39.991Z,135.67
2023-03-21T19:35:43.537Z,92.57
2023-03-21T19:40:46.360Z,83.00
2023-03-21T19:45:48.985Z,75.67
2023-03-21T19:51:24.317Z,83.73
2023-03-21T19:56:21.722Z,72.17
2023-03-21T20:01:27.790Z,72.90
2023-03-21T20:06:30.446Z,77.20
2023-03-21T20:11:33.171Z,77.27
2023-03-21T20:16:43.270Z,69.93
2023-03-21T20:21:54.036Z,86.57
2023-03-21T20:26:58.926Z,84.13
2023-03-21T20:32:01.515Z,83.23
2023-03-21T20:37:06.270Z,74.97
2023-03-21T20:42:09.263Z,80.13
2023-03-21T20:47:12.408Z,75.90
2023-03-21T20:52:52.151Z,72.10
2023-03-21T20:57:39.046Z,72.93
2023-03-21T21:02:43.403Z,71.97
2023-03-21T21:07:46.065Z,79.70
2023-03-21T21:12:48.490Z,84.10
2023-03-21T21:18:08.702Z,186.03
2023-03-21T21:23:13.599Z,716.33
2023-03-21T21:28:16.130Z,1286.73
2023-03-21T21:33:21.168Z,586.30
2023-03-21T21:38:23.734Z,1058.53
2023-03-21T21:43:26.508Z,285.03
2023-03-21T21:48:28.981Z,112.20
2023-03-21T21:53:33.845Z,76.57
2023-03-21T21:58:56.029Z,140.07
2023-03-21T22:04:06.261Z,77.83
2023-03-21T22:09:08.679Z,67.37
2023-03-21T22:14:11.308Z,112.40
2023-03-21T22:19:16.364Z,94.63
2023-03-21T22:24:18.776Z,70.13
2023-03-21T22:29:21.148Z,89.70
2023-03-21T22:34:26.248Z,72.57
2023-03-21T22:39:29.053Z,76.83
2023-03-21T22:44:35.007Z,69.57
2023-03-21T22:49:38.668Z,79.90
2023-03-21T22:54:41.094Z,102.50
2023-03-21T22:59:43.517Z,74.90
2023-03-21T23:04:45.976Z,85.90
2023-03-21T23:09:48.414Z,83.47
2023-03-21T23:14:53.068Z,79.20
2023-03-21T23:19:55.977Z,93.13
2023-03-21T23:24:58.638Z,88.87
2023-03-21T23:30:01.628Z,84.37
2023-03-21T23:35:04.671Z,80.63
2023-03-21T23:40:08.914Z,77.17
2023-03-21T23:45:11.528Z,80.33
2023-03-21T23:50:13.981Z,95.17
2023-03-21T23:55:16.528Z,98.47
